createdAt,value
2023-02-26T00:02:36.678Z,3.13
2023-02-26T00:07:40.178Z,2.80
2023-02-26T00:12:44.128Z,2.83
2023-02-26T00:17:54.297Z,2.28
2023-02-26T00:22:58.239Z,2.70
2023-02-26T00:28:01.642Z,1.88
2023-02-26T00:33:06.793Z,2.00
2023-02-26T00:38:14.582Z,2.55
2023-02-26T00:43:19.306Z,2.10
2023-02-26T00:48:34.383Z,2.58
2023-02-26T00:53:45.405Z,1.92
2023-02-26T00:58:48.200Z,2.20
2023-02-26T01:03:53.080Z,1.92
2023-02-26T01:09:05.233Z,1.98
2023-02-26T01:14:08.889Z,1.63
2023-02-26T01:19:21.504Z,1.77
2023-02-26T01:24:26.804Z,1.95
2023-02-26T01:29:29.962Z,1.58
2023-02-26T01:34:39.083Z,1.40
2023-02-26T01:39:48.078Z,1.60
2023-02-26T01:45:00.511Z,1.50
2023-02-26T01:50:13.995Z,1.45
2023-02-26T01:55:20.343Z,1.77
2023-02-26T02:00:23.538Z,1.15
2023-02-26T02:05:34.088Z,1.30
2023-02-26T02:10:36.902Z,1.70
2023-02-26T02:15:46.724Z,1.73
2023-02-26T02:21:18.628Z,1.45
2023-02-26T02:26:43.566Z,1.40
2023-02-26T02:31:55.213Z,1.58
2023-02-26T02:37:05.117Z,1.00
2023-02-26T02:42:17.625Z,1.33
2023-02-26T02:47:25.175Z,1.30
2023-02-26T02:52:34.696Z,1.35
2023-02-26T02:57:41.923Z,1.10
2023-02-26T03:02:52.049Z,2.05
2023-02-26T03:07:58.246Z,1.13
2023-02-26T03:13:01.122Z,1.70
2023-02-26T03:18:14.172Z,1.48
2023-02-26T03:23:23.312Z,1.58
2023-02-26T03:28:37.386Z,1.10
2023-02-26T03:33:51.462Z,1.17
2023-02-26T03:38:58.434Z,1.33
2023-02-26T03:44:08.652Z,1.10
2023-02-26T03:49:19.668Z,1.20
2023-02-26T03:54:27.790Z,1.40
2023-02-26T03:59:47.360Z,1.63
2023-02-26T04:05:13.431Z,1.20
2023-02-26T04:10:20.314Z,1.48
2023-02-26T04:15:23.202Z,1.20
2023-02-26T04:20:27.560Z,1.50
2023-02-26T04:25:30.824Z,1.85
2023-02-26T04:30:35.221Z,1.13
2023-02-26T04:35:41.201Z,1.50
2023-02-26T04:40:45.835Z,1.20
2023-02-26T04:45:50.941Z,1.50
2023-02-26T04:50:55.304Z,0.98
2023-02-26T04:55:58.315Z,1.75
2023-02-26T05:01:01.423Z,1.38
2023-02-26T05:06:05.943Z,2.33
2023-02-26T05:11:08.840Z,1.30
2023-02-26T05:16:12.099Z,1.73
2023-02-26T05:21:16.448Z,1.48
2023-02-26T05:26:19.343Z,1.38
2023-02-26T05:31:22.308Z,2.15
2023-02-26T05:36:27.035Z,1.17
2023-02-26T05:41:29.934Z,1.52
2023-02-26T05:46:32.802Z,1.92
2023-02-26T05:51:37.010Z,1.20
2023-02-26T05:56:39.977Z,1.45
2023-02-26T06:01:43.457Z,1.40
2023-02-26T06:06:47.729Z,1.40
2023-02-26T06:11:50.624Z,1.08
2023-02-26T06:16:53.578Z,1.85
2023-02-26T06:21:57.762Z,1.08
2023-02-26T06:27:00.538Z,1.45
2023-02-26T06:32:03.419Z,1.77
2023-02-26T06:37:07.802Z,1.92
2023-02-26T06:42:10.873Z,3.30
2023-02-26T06:47:13.851Z,1.75
2023-02-26T06:52:18.190Z,2.03
2023-02-26T06:57:21.165Z,1.52
2023-02-26T07:02:24.436Z,1.23
2023-02-26T07:07:29.447Z,1.25
2023-02-26T07:12:32.272Z,1.42
2023-02-26T07:17:35.093Z,1.15
2023-02-26T07:22:39.364Z,1.63
2023-02-26T07:27:43.813Z,3.42
2023-02-26T07:32:46.851Z,1.10
2023-02-26T07:37:52.192Z,1.15
2023-02-26T07:42:55.030Z,1.05
2023-02-26T07:47:57.935Z,1.25
2023-02-26T07:53:02.151Z,1.33
2023-02-26T08:03:42.666Z,1.10
2023-02-26T08:08:46.954Z,1.02
2023-02-26T08:13:49.774Z,1.50
2023-02-26T08:18:52.539Z,1.02
2023-02-26T08:23:56.802Z,1.30
2023-02-26T08:28:59.704Z,1.20
2023-02-26T08:34:02.566Z,1.15
2023-02-26T08:39:07.724Z,1.30
2023-02-26T08:44:10.460Z,1.60
2023-02-26T08:49:13.203Z,0.85
2023-02-26T08:54:17.569Z,0.93
2023-02-26T08:59:20.529Z,0.90
2023-02-26T09:04:23.488Z,1.17
2023-02-26T09:09:27.834Z,1.08
2023-02-26T09:14:30.631Z,0.90
2023-02-26T09:19:33.500Z,1.90
2023-02-26T09:24:37.660Z,1.33
2023-02-26T09:29:40.498Z,1.00
2023-02-26T09:34:43.344Z,0.80
2023-02-26T09:39:47.545Z,0.85
2023-02-26T09:44:53.716Z,0.60
2023-02-26T09:50:05.970Z,0.70
2023-02-26T09:55:18.817Z,0.60
2023-02-26T10:00:30.280Z,0.90
2023-02-26T10:05:41.001Z,0.60
2023-02-26T10:10:51.731Z,0.90
2023-02-26T10:16:01.520Z,0.60
2023-02-26T10:21:12.566Z,0.60
2023-02-26T10:26:21.191Z,0.57
2023-02-26T10:31:31.437Z,0.50
2023-02-26T10:36:45.725Z,0.60
2023-02-26T10:41:52.497Z,0.65
2023-02-26T10:47:04.047Z,0.60
2023-02-26T10:52:14.884Z,0.55
2023-02-26T10:57:24.285Z,0.50
2023-02-26T11:02:36.238Z,0.70
2023-02-26T11:07:41.249Z,0.50
2023-02-26T11:12:45.924Z,0.65
2023-02-26T11:17:50.253Z,0.70
2023-02-26T11:22:56.551Z,0.80
2023-02-26T11:28:03.581Z,0.40
2023-02-26T11:33:17.538Z,0.60
2023-02-26T11:38:26.943Z,0.60
2023-02-26T11:43:39.204Z,0.50
2023-02-26T11:48:45.170Z,0.60
2023-02-26T11:53:52.367Z,0.77
2023-02-26T11:58:56.951Z,0.90
2023-02-26T12:04:02.144Z,0.60
2023-02-26T12:09:05.977Z,0.57
2023-02-26T12:14:23.021Z,0.60
2023-02-26T12:19:35.415Z,0.82
2023-02-26T12:24:54.311Z,0.50
2023-02-26T12:30:11.933Z,0.80
2023-02-26T12:35:47.321Z,0.60
2023-02-26T12:41:07.560Z,0.70
2023-02-26T12:46:24.214Z,0.80
2023-02-26T12:51:39.558Z,1.00
2023-02-26T12:56:55.921Z,1.00
2023-02-26T13:02:33.658Z,0.90
2023-02-26T13:07:51.352Z,0.75
2023-02-26T13:13:03.311Z,1.20
2023-02-26T13:18:12.910Z,0.90
2023-02-26T13:23:21.507Z,1.35
2023-02-26T13:28:35.130Z,0.90
2023-02-26T13:33:40.937Z,0.80
2023-02-26T13:38:54.936Z,0.90
2023-02-26T13:44:18.847Z,1.52
2023-02-26T13:49:27.979Z,1.25
2023-02-26T13:54:44.187Z,0.98
2023-02-26T13:59:54.304Z,0.88
2023-02-26T14:05:01.174Z,0.70
2023-02-26T14:10:16.650Z,0.90
2023-02-26T14:15:28.939Z,0.80
2023-02-26T14:20:35.464Z,0.85
2023-02-26T14:25:40.343Z,1.00
2023-02-26T14:30:49.306Z,0.60
2023-02-26T14:35:55.534Z,0.70
2023-02-26T14:41:09.955Z,0.73
2023-02-26T14:46:13.862Z,0.70
2023-02-26T14:51:28.329Z,0.80
2023-02-26T14:56:45.688Z,0.80
2023-02-26T15:01:53.089Z,0.70
2023-02-26T15:07:09.535Z,0.85
2023-02-26T15:12:29.379Z,0.60
2023-02-26T15:17:46.957Z,0.80
2023-02-26T15:23:09.241Z,0.90
2023-02-26T15:28:16.522Z,0.77
2023-02-26T15:33:20.870Z,0.90
2023-02-26T15:38:25.058Z,1.10
2023-02-26T15:43:30.041Z,0.50
2023-02-26T15:48:38.282Z,0.70
2023-02-26T15:53:45.547Z,0.90
2023-02-26T15:58:54.845Z,1.20
2023-02-26T16:03:59.706Z,1.08
2023-02-26T16:09:06.523Z,0.90
2023-02-26T16:14:18.066Z,0.60
2023-02-26T16:19:26.764Z,0.90
2023-02-26T16:24:32.108Z,0.95
2023-02-26T16:29:37.108Z,1.10
2023-02-26T16:34:43.208Z,1.05
2023-02-26T16:39:47.418Z,1.40
2023-02-26T16:44:53.325Z,1.02
2023-02-26T16:49:56.188Z,1.50
2023-02-26T16:55:05.742Z,2.10
2023-02-26T17:00:17.738Z,1.00
2023-02-26T17:05:25.848Z,1.67
2023-02-26T17:10:34.618Z,1.30
2023-02-26T17:15:40.756Z,1.17
2023-02-26T17:20:44.677Z,1.25
2023-02-26T17:25:54.088Z,1.40
2023-02-26T17:30:58.448Z,1.60
2023-02-26T17:36:04.060Z,1.77
2023-02-26T17:41:08.215Z,1.80
2023-02-26T17:46:12.702Z,1.35
2023-02-26T17:51:16.843Z,1.70
2023-02-26T17:56:27.067Z,1.35
2023-02-26T18:01:30.565Z,1.65
2023-02-26T18:06:36.156Z,1.63
2023-02-26T18:11:41.892Z,1.55
2023-02-26T18:16:46.733Z,1.52
2023-02-26T18:21:50.674Z,2.03
2023-02-26T18:26:54.908Z,2.67
2023-02-26T18:32:00.434Z,2.72
2023-02-26T18:37:04.394Z,2.92
2023-02-26T18:42:15.068Z,1.70
2023-02-26T18:47:19.028Z,2.33
2023-02-26T18:52:21.885Z,1.77
2023-02-26T18:57:26.094Z,1.77
2023-02-26T19:02:29.120Z,1.70
2023-02-26T19:07:32.002Z,1.98
2023-02-26T19:12:36.238Z,1.95
2023-02-26T19:17:39.538Z,2.22
2023-02-26T19:22:43.578Z,3.30
2023-02-26T19:27:47.683Z,4.55
2023-02-26T19:32:50.719Z,4.80
2023-02-26T19:37:54.848Z,4.45
2023-02-26T19:42:59.035Z,5.55
2023-02-26T19:48:01.855Z,4.90
2023-02-26T19:53:04.964Z,5.28
2023-02-26T19:58:09.410Z,4.60
2023-02-26T20:03:12.253Z,3.58
2023-02-26T20:08:15.109Z,3.38
2023-02-26T20:13:19.666Z,3.38
2023-02-26T20:18:22.467Z,3.53
2023-02-26T20:23:26.071Z,4.32
2023-02-26T20:28:30.290Z,5.05
2023-02-26T20:33:33.414Z,4.57
2023-02-26T20:38:37.033Z,6.28
2023-02-26T20:43:41.343Z,6.68
2023-02-26T20:48:44.799Z,6.68
2023-02-26T20:53:47.697Z,6.25
2023-02-26T20:58:51.964Z,6.50
2023-02-26T21:03:54.841Z,7.97
2023-02-26T21:08:57.725Z,5.90
2023-02-26T21:14:03.135Z,5.05
2023-02-26T21:19:06.008Z,5.10
2023-02-26T21:24:09.363Z,4.40
2023-02-26T21:29:13.461Z,4.30
2023-02-26T21:34:32.591Z,4.95
2023-02-26T21:39:37.990Z,5.80
2023-02-26T21:44:42.722Z,4.60
2023-02-26T21:49:45.764Z,4.47
2023-02-26T21:54:48.523Z,4.93
2023-02-26T21:59:52.687Z,4.00
2023-02-26T22:04:55.490Z,4.50
2023-02-26T22:09:58.326Z,3.53
2023-02-26T22:15:02.500Z,4.07
2023-02-26T22:20:09.754Z,3.70
2023-02-26T22:25:13.777Z,4.07
2023-02-26T22:30:18.036Z,4.97
2023-02-26T22:35:21.045Z,4.40
2023-02-26T22:40:24.862Z,4.53
2023-02-26T22:45:29.485Z,4.38
2023-02-26T22:50:33.139Z,4.05
2023-02-26T22:55:35.902Z,5.18
2023-02-26T23:00:41.221Z,5.68
2023-02-26T23:05:43.915Z,5.65
2023-02-26T23:10:47.006Z,5.50
2023-02-26T23:15:51.207Z,5.57
2023-02-26T23:20:54.255Z,5.10
2023-02-26T23:25:57.129Z,5.70
2023-02-26T23:31:01.304Z,6.20
2023-02-26T23:36:04.040Z,5.68
2023-02-26T23:41:06.897Z,4.97
2023-02-26T23:46:11.907Z,3.95
2023-02-26T23:51:14.783Z,4.75
2023-02-26T23:56:17.549Z,4.43
